Record high temperature 37.8°C Record low temperature -18.0°C Record high gust 54.6 km/h Record high average 96.6 km/h Record daily rain 43.6 mm Record low windchill -22.4°C Record high barometer 1076.0 hPa Record low barometer 924.1 hPa
Daily high pressure 1010.6 mb Daily low pressure 1005.2 mb Daily low windchill -0.4°C Daily high heat index 7.7°C Daily high gust speed 2.8 kmh ESE Daily high average speed 0.9 kmh NW
Weather Data for Pucioasa, DB - Romania
LAST READING AT TIME: 1:00 PM DATE: 25 December 2013, time of next update: 1:30 pm
Current WeatherOvercast and gloomy/Dry Current Temperature 7.7°C (45.9°F), Apparent temp 6.6°C, Apparent temp solar 6.6°C
Maximum Temperature (since midnight)7.7°C at: 12:55 PM Minimum Temperature (since midnight)-0.4°C at: 2:19 AM
Average windspeed (ten minute)0.2 kmh (0.1 kts) Wind Direction (ten minute)ENE (67°)
Windchill Temperature 7.7°C Maximum Gust (last hour)2.8 kmh (1.5 kts) at: 12:57PM
Maximum Gust (since midnight)2.8 kmh (1.5 kts) at: 12:57 PM Maximum 1 minute average (since midnight)0.9 kmh (0.5 kts) at: 1:33 AM
Rainfall (last hour)0.0 mm Rainfall (since midnight)0.0 mm (0.00 in.)---
Rainfall This month 0.0 mm (0.00 in.) Rainfall To date this year 721.4 mm (28.40 in.)
Maximum rain per minute (last hour)0.0 mm/min Maximum rain per hour (last 6 hours)0.0 mm/hour
Yesterdays rainfall 0.0 mm DewPoint 1.7°C (Wet Bulb :5.3°C )
Humidity 66 %, Humidex 6.0°C Barometer corrected to msl1005.2 mb
Pressure change -0.6 mb (last hour) Trend (last hour)STEADY
Pressure change (last 12 hours)-4.7 mb Pressure change (last 6 hours)-1.6 mb
Current solar 0 W/Mē Current UV0.0
Maximum solar (since midnight) 0 W/M2 Maximum UV (since midnight)-1.0
Current 00:00 hours of sunshine today, current sky: Overcast and gloomy
Sunshine hours for the year: 00:00 hrs Sunshine hours for the month: 00:00 hrs
Current evapotranspiration rate 0.2 mm per day. Yesterday's reading 0.2

This page is updated from recent data collected by a Honeywell/Irox weather station Use the Reload or Refresh facility on your browser to retrieve the latest data.



Weather report/warning/Metars

Bucuresti Otopeni, Romania (LROP) 44-33N 026-06E 95M
Dec 25, 2013 - 05:30 AM EST / 2013.12.25 1030 UTC
Wind: Variable at 2 MPH (2 KT) (direction variable):0
Visibility: less than 1 mile:0
Sky conditions: overcast
Weather: fog
Temperature: 32 F (0 C)
Dew Point: 32 F (0 C)
Relative Humidity: 100%
Pressure (altimeter): 30.15 in. Hg (1021 hPa)
ob: LROP 251030Z VRB02KT 0600 R08R/1400V2000D R26L/1700N FG SCT001 OVC002 00/M00 Q1021 8819//95 NOSIG
cycle: 10
Sibiu, Romania (LRSB) 45-48N 024-09E 444M
Dec 25, 2013 - 05:30 AM EST / 2013.12.25 1030 UTC
Wind: from the NW (320 degrees) at 7 MPH (6 KT):0
Visibility: greater than 7 mile(s):0
Temperature: 39 F (4 C)
Dew Point: 32 F (0 C)
Relative Humidity: 75%
Pressure (altimeter): 30.00 in. Hg (1016 hPa)
ob: LRSB 251030Z 32006KT CAVOK 04/00 Q1016
cycle: 10
Craiova, Romania (LRCV) 44-14N 023-52E 195M
Dec 25, 2013 - 05:30 AM EST / 2013.12.25 1030 UTC
Wind: Variable at 2 MPH (2 KT):0
Visibility: less than 1 mile:0
Sky conditions: obscured
Weather: freezing fog
Temperature: 28 F (-2 C)
Dew Point: 28 F (-2 C)
Relative Humidity: 100%
Pressure (altimeter): 30.12 in. Hg (1020 hPa)
ob: LRCV 251030Z AUTO VRB02KT 0250 FZFG VV001 M02/M02 Q1020
cycle: 10
Kogalniceanu, Romania (LRCK) 44-20N 028-26E 102M
Dec 25, 2013 - 05:30 AM EST / 2013.12.25 1030 UTC
Wind: from the SE (140 degrees) at 10 MPH (9 KT) (direction variable):0
Visibility: 3 mile(s):0
Sky conditions: partly cloudy
Weather: mist
Temperature: 50 F (10 C)
Dew Point: 48 F (9 C)
Relative Humidity: 93%
Pressure (altimeter): 30.18 in. Hg (1022 hPa)
ob: LRCK 251030Z 14009KT 110V170 5000 BR SCT008 10/09 Q1022 1819//95 NOSIG
cycle: 10